createdAt,value
2023-03-12T00:00:59.360Z,1.63
2023-03-12T00:01:59.575Z,1.63
2023-03-12T00:02:59.818Z,1.63
2023-03-12T00:04:00.142Z,1.63
2023-03-12T00:05:00.257Z,1.61
2023-03-12T00:06:09.833Z,1.60
2023-03-12T00:07:01.609Z,1.63
2023-03-12T00:08:00.836Z,1.66
2023-03-12T00:09:01.012Z,1.67
2023-03-12T00:10:01.208Z,1.66
2023-03-12T00:11:01.409Z,1.66
2023-03-12T00:12:01.662Z,1.66
2023-03-12T00:13:01.871Z,1.67
2023-03-12T00:14:02.072Z,1.67
2023-03-12T00:15:02.292Z,1.67
2023-03-12T00:16:02.490Z,1.67
2023-03-12T00:17:02.685Z,1.70
2023-03-12T00:18:02.888Z,1.68
2023-03-12T00:19:03.109Z,1.70
2023-03-12T00:20:03.297Z,1.70
2023-03-12T00:21:03.482Z,1.71
2023-03-12T00:22:03.687Z,1.71
2023-03-12T00:23:03.874Z,1.68
2023-03-12T00:24:04.131Z,1.68
2023-03-12T00:25:04.292Z,1.71
2023-03-12T00:26:04.486Z,1.71
2023-03-12T00:27:04.683Z,1.74
2023-03-12T00:28:04.890Z,1.74
2023-03-12T00:29:05.091Z,1.81
2023-03-12T00:30:05.286Z,1.79
2023-03-12T00:31:05.554Z,1.79
2023-03-12T00:32:05.624Z,1.81
2023-03-12T00:33:05.824Z,1.81
2023-03-12T00:34:06.033Z,1.82
2023-03-12T00:35:06.220Z,1.79
2023-03-12T00:36:06.431Z,1.78
2023-03-12T00:37:06.618Z,1.81
2023-03-12T00:38:06.819Z,1.79
2023-03-12T00:39:07.021Z,1.78
2023-03-12T00:40:07.217Z,1.75
2023-03-12T00:41:07.404Z,1.74
2023-03-12T00:42:07.595Z,1.75
2023-03-12T00:43:07.788Z,1.71
2023-03-12T00:44:07.984Z,1.75
2023-03-12T00:45:08.186Z,1.76
2023-03-12T00:46:08.367Z,1.75
2023-03-12T00:47:08.553Z,1.74
2023-03-12T00:48:08.765Z,1.71
2023-03-12T00:49:08.959Z,1.71
2023-03-12T00:50:09.155Z,1.71
2023-03-12T00:51:09.360Z,1.74
2023-03-12T00:52:09.556Z,1.74
2023-03-12T00:53:09.742Z,1.71
2023-03-12T00:54:09.941Z,1.74
2023-03-12T00:55:10.069Z,1.71
2023-03-12T00:56:10.249Z,1.71
2023-03-12T00:57:10.429Z,1.71
2023-03-12T00:58:10.621Z,1.74
2023-03-12T00:59:10.822Z,1.71
2023-03-12T01:00:11.016Z,1.74
2023-03-12T01:01:11.371Z,1.78
2023-03-12T01:02:11.409Z,1.82
2023-03-12T01:03:11.619Z,1.84
2023-03-12T01:04:11.857Z,1.88
2023-03-12T01:05:12.043Z,1.92
2023-03-12T01:06:12.213Z,1.95
2023-03-12T01:07:12.402Z,1.97
2023-03-12T01:08:12.599Z,2.00
2023-03-12T01:09:12.797Z,2.00
2023-03-12T01:10:12.979Z,2.00
2023-03-12T01:11:13.172Z,2.03
2023-03-12T01:12:13.358Z,2.04
2023-03-12T01:13:13.548Z,2.04
2023-03-12T01:14:13.737Z,2.08
2023-03-12T01:15:13.914Z,2.07
2023-03-12T01:16:14.125Z,2.08
2023-03-12T01:17:14.328Z,2.12
2023-03-12T01:18:14.511Z,2.12
2023-03-12T01:19:14.691Z,2.12
2023-03-12T01:20:14.874Z,2.12
2023-03-12T01:21:15.049Z,2.14
2023-03-12T01:22:15.210Z,2.14
2023-03-12T01:23:15.385Z,2.15
2023-03-12T01:24:15.593Z,2.15
2023-03-12T01:25:15.747Z,2.16
2023-03-12T01:26:15.918Z,2.15
2023-03-12T01:27:16.088Z,2.14
2023-03-12T01:28:16.274Z,2.14
2023-03-12T01:29:16.458Z,2.12
2023-03-12T01:30:16.628Z,2.08
2023-03-12T01:31:16.849Z,2.10
2023-03-12T01:32:17.087Z,2.04
2023-03-12T01:33:17.227Z,2.01
2023-03-12T01:34:17.408Z,2.00
2023-03-12T01:35:17.592Z,1.98
2023-03-12T01:36:17.825Z,1.97
2023-03-12T01:37:17.986Z,1.92
2023-03-12T01:38:18.156Z,1.88
2023-03-12T01:39:18.345Z,1.88
2023-03-12T01:40:18.529Z,1.86
2023-03-12T01:41:18.697Z,1.86
2023-03-12T01:42:18.890Z,1.85
2023-03-12T01:43:19.063Z,1.85
2023-03-12T01:44:19.278Z,1.84
2023-03-12T01:45:19.448Z,1.81
2023-03-12T01:46:19.653Z,1.78
2023-03-12T01:47:19.833Z,1.78
2023-03-12T01:48:20.017Z,1.78
2023-03-12T01:49:20.208Z,1.76
2023-03-12T01:50:20.410Z,1.79
2023-03-12T01:51:20.575Z,1.79
2023-03-12T01:52:20.764Z,1.82
2023-03-12T01:53:20.948Z,1.84
2023-03-12T01:54:21.149Z,1.88
2023-03-12T01:55:21.313Z,1.92
2023-03-12T01:56:21.502Z,1.92
2023-03-12T01:57:21.677Z,1.93
2023-03-12T01:58:21.848Z,1.95
2023-03-12T01:59:22.026Z,1.97
2023-03-12T02:00:22.213Z,1.98
2023-03-12T02:01:22.444Z,2.00
2023-03-12T02:02:22.628Z,2.03
2023-03-12T02:03:22.806Z,2.03
2023-03-12T02:04:23.077Z,2.03
2023-03-12T02:05:23.147Z,2.04
2023-03-12T02:06:23.323Z,2.04
2023-03-12T02:07:23.488Z,2.07
2023-03-12T02:08:23.674Z,2.07
2023-03-12T02:09:23.848Z,2.05
2023-03-12T02:10:24.023Z,2.04
2023-03-12T02:11:24.200Z,2.08
2023-03-12T02:12:24.379Z,2.07
2023-03-12T02:13:24.543Z,2.08
2023-03-12T02:14:24.724Z,2.10
2023-03-12T02:15:24.888Z,2.12
2023-03-12T02:16:25.073Z,2.08
2023-03-12T02:17:25.232Z,2.10
2023-03-12T02:18:25.402Z,2.08
2023-03-12T02:19:25.580Z,2.07
2023-03-12T02:20:25.753Z,2.05
2023-03-12T02:21:25.906Z,2.04
2023-03-12T02:22:26.070Z,2.05
2023-03-12T02:23:26.240Z,2.07
2023-03-12T02:24:26.412Z,2.07
2023-03-12T02:25:26.564Z,2.07
2023-03-12T02:26:26.726Z,2.05
2023-03-12T02:27:26.876Z,2.05
2023-03-12T02:28:27.031Z,2.07
2023-03-12T02:29:27.205Z,2.05
2023-03-12T02:30:27.359Z,2.03
2023-03-12T02:31:27.540Z,2.01
2023-03-12T02:32:27.818Z,2.00
2023-03-12T02:33:27.978Z,2.00
2023-03-12T02:34:28.169Z,1.98
2023-03-12T02:35:28.307Z,1.98
2023-03-12T02:36:28.467Z,1.97
2023-03-12T02:37:28.625Z,1.97
2023-03-12T02:38:28.781Z,1.95
2023-03-12T02:39:28.977Z,1.95
2023-03-12T02:40:29.116Z,1.95
2023-03-12T02:41:29.275Z,1.97
2023-03-12T02:42:29.444Z,1.98
2023-03-12T02:43:29.597Z,1.98
2023-03-12T02:44:29.776Z,1.97
2023-03-12T02:45:29.938Z,1.93
2023-03-12T02:46:30.111Z,1.92
2023-03-12T02:47:30.260Z,1.89
2023-03-12T02:48:30.421Z,1.92
2023-03-12T02:49:30.605Z,1.89
2023-03-12T02:50:30.763Z,1.88
2023-03-12T02:51:30.910Z,1.85
2023-03-12T02:52:31.086Z,1.84
2023-03-12T02:53:31.244Z,1.81
2023-03-12T02:54:31.434Z,1.76
2023-03-12T02:55:31.595Z,1.75
2023-03-12T02:56:31.760Z,1.74
2023-03-12T02:57:31.920Z,1.71
2023-03-12T02:58:32.088Z,1.70
2023-03-12T02:59:32.269Z,1.70
2023-03-12T03:00:32.441Z,1.68
2023-03-12T03:01:32.651Z,1.67
2023-03-12T03:02:32.812Z,1.64
2023-03-12T03:03:32.973Z,1.63
2023-03-12T03:04:33.255Z,1.63
2023-03-12T03:05:33.308Z,1.60
2023-03-12T03:06:33.487Z,1.53
2023-03-12T03:07:33.653Z,1.52
2023-03-12T03:08:33.830Z,1.49
2023-03-12T03:09:34.015Z,1.50
2023-03-12T03:10:34.203Z,1.50
2023-03-12T03:11:34.370Z,1.50
2023-03-12T03:12:34.561Z,1.52
2023-03-12T03:13:34.729Z,1.50
2023-03-12T03:14:34.945Z,1.52
2023-03-12T03:15:35.183Z,1.52
2023-03-12T03:16:35.271Z,1.49
2023-03-12T03:17:35.460Z,1.46
2023-03-12T03:18:35.642Z,1.45
2023-03-12T03:19:35.821Z,1.43
2023-03-12T03:20:36.011Z,1.40
2023-03-12T03:21:36.225Z,1.40
2023-03-12T03:22:36.408Z,1.40
2023-03-12T03:23:36.586Z,1.38
2023-03-12T03:24:36.803Z,1.38
2023-03-12T03:25:36.955Z,1.39
2023-03-12T03:26:37.153Z,1.38
2023-03-12T03:27:37.347Z,1.38
2023-03-12T03:28:37.520Z,1.39
2023-03-12T03:29:37.712Z,1.38
2023-03-12T03:30:37.900Z,1.38
2023-03-12T03:31:38.076Z,1.34
2023-03-12T03:32:38.348Z,1.32
2023-03-12T03:33:38.449Z,1.31
2023-03-12T03:34:38.649Z,1.31
2023-03-12T03:35:45.938Z,1.31
2023-03-12T03:36:39.070Z,1.30
2023-03-12T03:37:39.252Z,1.28
2023-03-12T03:38:39.447Z,1.28
2023-03-12T03:39:39.661Z,1.28
2023-03-12T03:40:39.871Z,1.25
2023-03-12T03:41:40.072Z,1.24
2023-03-12T03:42:40.268Z,1.22
2023-03-12T03:43:40.448Z,1.22
2023-03-12T03:44:40.659Z,1.21
2023-03-12T03:45:40.847Z,1.20
2023-03-12T03:46:41.132Z,1.18
2023-03-12T03:47:41.283Z,1.18
2023-03-12T03:48:41.500Z,1.20
2023-03-12T03:49:41.707Z,1.21
2023-03-12T03:50:41.891Z,1.22
2023-03-12T03:51:42.076Z,1.21
2023-03-12T03:52:42.297Z,1.21
2023-03-12T03:53:42.480Z,1.20
2023-03-12T03:54:42.704Z,1.16
2023-03-12T03:55:42.900Z,1.18
2023-03-12T03:56:43.099Z,1.16
2023-03-12T03:57:43.299Z,1.13
2023-03-12T03:58:43.488Z,1.12
2023-03-12T03:59:43.685Z,1.14
2023-03-12T04:00:43.902Z,1.14
2023-03-12T04:01:44.099Z,1.13
2023-03-12T04:02:44.298Z,1.12
2023-03-12T04:03:44.531Z,1.12
2023-03-12T04:04:44.720Z,1.10
2023-03-12T04:05:44.923Z,1.09
2023-03-12T04:06:45.159Z,1.03
2023-03-12T04:07:45.369Z,1.06
2023-03-12T04:08:45.575Z,1.07
2023-03-12T04:09:45.764Z,1.04
2023-03-12T04:10:45.964Z,1.06
2023-03-12T04:11:46.143Z,1.04
2023-03-12T04:12:46.349Z,1.03
2023-03-12T04:13:46.526Z,1.03
2023-03-12T04:14:46.748Z,1.02
2023-03-12T04:15:46.946Z,1.02
2023-03-12T04:16:47.098Z,1.02
2023-03-12T04:17:47.289Z,1.02
2023-03-12T04:18:47.491Z,1.03
2023-03-12T04:19:47.705Z,1.04
2023-03-12T04:20:47.924Z,1.06
2023-03-12T04:21:48.120Z,1.06
2023-03-12T04:22:48.320Z,1.06
2023-03-12T04:23:48.519Z,1.03
2023-03-12T04:24:48.733Z,1.00
2023-03-12T04:25:48.936Z,0.99
2023-03-12T04:26:49.148Z,0.96
2023-03-12T04:27:49.335Z,0.95
2023-03-12T04:28:49.541Z,0.96
2023-03-12T04:29:49.750Z,0.96
2023-03-12T04:30:49.960Z,0.96
2023-03-12T04:31:50.160Z,0.92
2023-03-12T04:32:50.404Z,0.91
2023-03-12T04:33:50.600Z,0.92
2023-03-12T04:34:50.848Z,0.89
2023-03-12T04:35:51.098Z,0.89
2023-03-12T04:36:51.289Z,0.89
2023-03-12T04:37:51.488Z,0.91
2023-03-12T04:38:51.700Z,0.89
2023-03-12T04:39:51.930Z,0.91
2023-03-12T04:40:52.109Z,0.89
2023-03-12T04:41:52.327Z,0.86
2023-03-12T04:42:53.017Z,0.85
2023-03-12T04:43:52.697Z,0.84
2023-03-12T04:44:52.933Z,0.84
2023-03-12T04:45:53.136Z,0.84
2023-03-12T04:46:53.461Z,0.82
2023-03-12T04:47:53.570Z,0.82
2023-03-12T04:48:53.762Z,0.82
2023-03-12T04:49:54.000Z,0.82
2023-03-12T04:50:54.181Z,0.82
2023-03-12T04:51:54.378Z,0.82
2023-03-12T04:52:54.583Z,0.82
2023-03-12T04:53:54.807Z,0.84
2023-03-12T04:54:54.999Z,0.82
2023-03-12T04:55:55.232Z,0.84
2023-03-12T04:56:55.438Z,0.82
2023-03-12T04:57:55.693Z,0.78
2023-03-12T04:58:55.878Z,0.81
2023-03-12T04:59:56.109Z,0.81
2023-03-12T05:00:56.322Z,0.78
2023-03-12T05:01:56.560Z,0.74
2023-03-12T05:02:56.838Z,0.76
2023-03-12T05:03:57.008Z,0.73
2023-03-12T05:04:57.156Z,0.73
2023-03-12T05:05:57.392Z,0.74
2023-03-12T05:06:57.609Z,0.74
2023-03-12T05:07:57.864Z,0.71
2023-03-12T05:08:57.978Z,0.71
2023-03-12T05:09:58.201Z,0.71
2023-03-12T05:10:58.454Z,0.70
2023-03-12T05:11:58.576Z,0.66
2023-03-12T05:12:58.811Z,0.64
2023-03-12T05:13:59.025Z,0.61
2023-03-12T05:14:59.252Z,0.64
2023-03-12T05:15:59.526Z,0.61
2023-03-12T05:16:59.661Z,0.61
2023-03-12T05:17:59.919Z,0.58
2023-03-12T05:19:00.071Z,0.56
2023-03-12T05:20:00.272Z,0.56
2023-03-12T05:21:00.499Z,0.58
2023-03-12T05:22:00.929Z,0.56
2023-03-12T05:23:00.904Z,0.59
2023-03-12T05:24:01.121Z,0.59
2023-03-12T05:25:01.348Z,0.59
2023-03-12T05:26:01.563Z,0.61
2023-03-12T05:27:01.777Z,0.61
2023-03-12T05:28:01.994Z,0.61
2023-03-12T05:29:02.297Z,0.61
2023-03-12T05:30:02.417Z,0.59
2023-03-12T05:31:02.590Z,0.61
2023-03-12T05:32:02.876Z,0.59
2023-03-12T05:33:02.964Z,0.59
2023-03-12T05:34:03.181Z,0.59
2023-03-12T05:35:03.391Z,0.61
2023-03-12T05:36:03.665Z,0.61
2023-03-12T05:37:03.842Z,0.58
2023-03-12T05:38:04.059Z,0.58
2023-03-12T05:39:04.279Z,0.59
2023-03-12T05:40:04.498Z,0.58
2023-03-12T05:41:04.704Z,0.59
2023-03-12T05:42:04.913Z,0.58
2023-03-12T05:43:05.114Z,0.56
2023-03-12T05:44:05.337Z,0.58
2023-03-12T05:45:05.582Z,0.58
2023-03-12T05:46:05.825Z,0.59
2023-03-12T05:47:05.925Z,0.59
2023-03-12T05:48:06.131Z,0.61
2023-03-12T05:49:06.346Z,0.59
2023-03-12T05:50:06.623Z,0.63
2023-03-12T05:51:06.718Z,0.61
2023-03-12T05:52:06.920Z,0.61
2023-03-12T05:53:07.116Z,0.61
2023-03-12T05:54:07.332Z,0.63
2023-03-12T05:55:07.547Z,0.64
2023-03-12T05:56:07.752Z,0.64
2023-03-12T05:57:07.966Z,0.64
2023-03-12T05:58:08.199Z,0.66
2023-03-12T05:59:08.289Z,0.67
2023-03-12T06:00:08.521Z,0.67
2023-03-12T06:01:08.719Z,0.67
2023-03-12T06:02:08.955Z,0.70
2023-03-12T06:03:09.205Z,0.73
2023-03-12T06:04:09.408Z,0.74
2023-03-12T06:05:09.528Z,0.76
2023-03-12T06:06:09.745Z,0.77
2023-03-12T06:07:09.952Z,0.77
2023-03-12T06:08:10.169Z,0.81
2023-03-12T06:09:10.367Z,0.84
2023-03-12T06:10:10.615Z,0.86
2023-03-12T06:11:10.823Z,0.86
2023-03-12T06:12:11.033Z,0.91
2023-03-12T06:13:11.247Z,0.91
2023-03-12T06:14:11.448Z,0.96
2023-03-12T06:15:11.651Z,0.99
2023-03-12T06:16:11.944Z,0.99
2023-03-12T06:17:12.047Z,1.02
2023-03-12T06:18:12.288Z,1.06
2023-03-12T06:19:12.484Z,1.12
2023-03-12T06:20:12.694Z,1.40
2023-03-12T06:21:12.919Z,1.85
2023-03-12T06:22:13.089Z,2.41
2023-03-12T06:23:13.281Z,2.87
2023-03-12T06:24:13.488Z,3.21
2023-03-12T06:25:13.707Z,3.36
2023-03-12T06:26:13.908Z,3.49
2023-03-12T06:27:14.088Z,3.84
2023-03-12T06:28:14.276Z,4.07
2023-03-12T06:29:14.498Z,3.94
2023-03-12T06:30:14.689Z,3.84
2023-03-12T06:31:14.896Z,3.99
2023-03-12T06:32:15.170Z,4.02
2023-03-12T06:33:15.233Z,4.34
2023-03-12T06:34:15.405Z,4.36
2023-03-12T06:35:15.585Z,4.43
2023-03-12T06:36:15.737Z,4.39
2023-03-12T06:37:15.863Z,4.21
2023-03-12T06:38:16.024Z,4.14
2023-03-12T06:39:16.154Z,4.09
2023-03-12T06:40:16.313Z,4.20
2023-03-12T06:41:16.436Z,4.74
2023-03-12T06:42:16.575Z,5.29
2023-03-12T06:43:16.641Z,5.28
2023-03-12T06:44:16.857Z,5.33
2023-03-12T06:45:17.238Z,5.72
2023-03-12T06:46:17.137Z,5.88
2023-03-12T06:47:17.869Z,5.83
2023-03-12T06:48:17.419Z,6.09
2023-03-12T06:49:17.592Z,6.17
2023-03-12T06:50:17.787Z,6.31
2023-03-12T06:51:17.959Z,6.49
2023-03-12T06:52:18.142Z,6.47
2023-03-12T06:53:18.304Z,6.29
2023-03-12T06:54:18.506Z,6.06
2023-03-12T06:55:18.689Z,6.17
2023-03-12T06:56:18.847Z,5.74
2023-03-12T06:57:19.019Z,5.56
2023-03-12T06:58:19.194Z,5.04
2023-03-12T06:59:19.338Z,4.86
2023-03-12T07:00:19.537Z,4.45
2023-03-12T07:01:19.578Z,4.07
2023-03-12T07:02:19.764Z,3.68
2023-03-12T07:03:19.908Z,3.63
2023-03-12T07:04:20.058Z,3.91
2023-03-12T07:05:20.283Z,4.32
2023-03-12T07:06:20.350Z,5.05
2023-03-12T07:07:20.497Z,5.74
2023-03-12T07:08:20.681Z,6.29
2023-03-12T07:09:20.852Z,6.43
2023-03-12T07:10:21.145Z,5.88
2023-03-12T07:11:21.172Z,5.69
2023-03-12T07:12:21.326Z,5.58
2023-03-12T07:13:21.510Z,5.37
2023-03-12T07:14:21.667Z,5.05
2023-03-12T07:15:21.821Z,4.86
2023-03-12T07:16:22.002Z,4.98
2023-03-12T07:17:22.156Z,5.20
2023-03-12T07:18:22.349Z,5.15
2023-03-12T07:19:22.483Z,5.18
2023-03-12T07:20:22.670Z,5.51
2023-03-12T07:21:22.909Z,5.80
2023-03-12T07:22:22.937Z,5.70
2023-03-12T07:23:23.108Z,5.44
2023-03-12T07:24:23.280Z,5.41
2023-03-12T07:25:23.471Z,5.47
2023-03-12T07:26:23.609Z,5.58
2023-03-12T07:27:23.760Z,5.38
2023-03-12T07:28:23.922Z,5.70
2023-03-12T07:29:24.068Z,5.81
2023-03-12T07:30:24.258Z,6.36
2023-03-12T07:31:24.425Z,6.96
2023-03-12T07:32:24.597Z,6.44
2023-03-12T07:33:24.844Z,6.17
2023-03-12T07:34:24.954Z,6.32
2023-03-12T07:35:25.156Z,6.53
2023-03-12T07:36:25.378Z,6.68
2023-03-12T07:37:25.318Z,6.83
2023-03-12T07:38:25.550Z,7.08
2023-03-12T07:39:25.684Z,7.33
2023-03-12T07:40:25.743Z,7.50
2023-03-12T07:41:25.890Z,7.61
2023-03-12T07:42:26.055Z,7.67
2023-03-12T07:43:26.246Z,7.72
2023-03-12T07:44:26.284Z,7.93
2023-03-12T07:45:26.488Z,8.16
2023-03-12T07:46:26.598Z,8.59
2023-03-12T07:47:26.718Z,8.92
2023-03-12T07:48:26.743Z,9.27
2023-03-12T07:49:26.811Z,9.11
2023-03-12T07:50:27.015Z,8.72
2023-03-12T07:51:27.055Z,8.86
2023-03-12T07:52:27.271Z,8.99
2023-03-12T07:53:27.298Z,8.82
2023-03-12T07:54:27.482Z,9.31
2023-03-12T07:55:27.498Z,9.21
2023-03-12T07:56:27.605Z,8.89
2023-03-12T07:57:27.737Z,8.79
2023-03-12T07:58:27.926Z,8.82
2023-03-12T07:59:28.023Z,7.84
2023-03-12T08:00:28.075Z,7.28
2023-03-12T08:01:28.229Z,6.74
2023-03-12T08:02:28.350Z,7.00
2023-03-12T08:03:28.502Z,7.88
2023-03-12T08:04:28.680Z,8.45
2023-03-12T08:05:28.649Z,8.87
2023-03-12T08:06:28.752Z,9.52
2023-03-12T08:07:28.845Z,9.91
2023-03-12T08:08:28.973Z,10.13
2023-03-12T08:09:29.057Z,10.20
2023-03-12T08:10:29.264Z,10.10
2023-03-12T08:11:29.171Z,9.63
2023-03-12T08:12:29.326Z,9.19
2023-03-12T08:13:29.387Z,9.03
2023-03-12T08:14:29.368Z,9.31
2023-03-12T08:15:29.412Z,8.96
2023-03-12T08:16:29.537Z,9.51
2023-03-12T08:17:29.591Z,9.94
2023-03-12T08:18:29.686Z,10.06
2023-03-12T08:19:29.734Z,9.92
2023-03-12T08:20:29.832Z,9.99
2023-03-12T08:21:29.906Z,9.44
2023-03-12T08:22:29.994Z,8.96
2023-03-12T08:23:30.082Z,8.64
2023-03-12T08:24:30.186Z,8.97
2023-03-12T08:25:30.284Z,9.87
2023-03-12T08:26:30.353Z,10.10
2023-03-12T08:27:30.440Z,10.58
2023-03-12T08:28:30.517Z,11.05
2023-03-12T08:29:30.581Z,10.95
2023-03-12T08:30:30.797Z,10.69
2023-03-12T08:31:30.776Z,9.73
2023-03-12T08:32:31.965Z,9.33
2023-03-12T08:33:30.910Z,9.31
2023-03-12T08:34:30.999Z,9.37
2023-03-12T08:35:31.148Z,9.84
2023-03-12T08:36:31.208Z,10.18
2023-03-12T08:37:31.263Z,10.39
2023-03-12T08:38:31.341Z,9.72
2023-03-12T08:39:31.410Z,9.27
2023-03-12T08:40:31.513Z,9.29
2023-03-12T08:41:31.557Z,9.39
2023-03-12T08:42:31.669Z,9.64
2023-03-12T08:43:31.757Z,9.55
2023-03-12T08:44:31.793Z,9.47
2023-03-12T08:45:31.954Z,9.81
2023-03-12T08:46:31.893Z,10.00
2023-03-12T08:47:31.963Z,10.00
2023-03-12T08:48:32.023Z,10.02
2023-03-12T08:49:32.112Z,9.91
2023-03-12T08:50:32.233Z,9.99
2023-03-12T08:51:32.216Z,10.30
2023-03-12T08:52:32.275Z,10.30
2023-03-12T08:53:32.341Z,10.36
2023-03-12T08:54:32.425Z,10.06
2023-03-12T08:55:32.557Z,9.36
2023-03-12T08:56:32.498Z,9.02
2023-03-12T08:57:32.572Z,8.56
2023-03-12T08:58:32.640Z,8.14
2023-03-12T08:59:32.711Z,7.70
2023-03-12T09:00:32.799Z,7.69
2023-03-12T09:01:32.875Z,7.81
2023-03-12T09:02:32.948Z,8.08
2023-03-12T09:03:33.091Z,7.90
2023-03-12T09:04:33.119Z,7.98
2023-03-12T09:05:33.222Z,8.32
2023-03-12T09:06:33.379Z,8.60
2023-03-12T09:07:33.374Z,9.13
2023-03-12T09:08:33.447Z,9.81
2023-03-12T09:09:33.522Z,10.18
2023-03-12T09:10:33.612Z,10.67
2023-03-12T09:11:33.726Z,11.81
2023-03-12T09:12:33.811Z,12.62
2023-03-12T09:13:57.800Z,12.81
2023-03-12T09:15:02.060Z,13.02
2023-03-12T09:15:34.931Z,12.75
2023-03-12T09:16:33.995Z,12.94
2023-03-12T09:17:34.069Z,13.42
2023-03-12T09:18:34.116Z,14.12
2023-03-12T09:19:34.163Z,14.05
2023-03-12T09:20:34.203Z,13.78
2023-03-12T09:21:34.252Z,13.06
2023-03-12T09:22:34.300Z,12.58
2023-03-12T09:23:34.327Z,12.51
2023-03-12T09:24:34.356Z,11.95
2023-03-12T09:25:34.393Z,11.77
2023-03-12T09:26:34.466Z,12.29
2023-03-12T09:27:34.549Z,13.16
2023-03-12T09:28:34.468Z,13.33
2023-03-12T09:29:34.512Z,13.36
2023-03-12T09:30:34.587Z,13.45
2023-03-12T09:31:34.646Z,12.21
2023-03-12T09:32:34.752Z,11.81
2023-03-12T09:33:34.677Z,11.56
2023-03-12T09:34:34.703Z,11.05
2023-03-12T09:35:34.819Z,10.53
2023-03-12T09:36:41.729Z,10.27
2023-03-12T09:37:34.798Z,10.46
2023-03-12T09:38:34.833Z,10.82
2023-03-12T09:39:34.877Z,10.64
2023-03-12T09:40:34.927Z,10.31
2023-03-12T09:41:34.954Z,9.95
2023-03-12T09:42:35.018Z,9.62
2023-03-12T09:43:35.074Z,9.92
2023-03-12T09:44:35.124Z,10.45
2023-03-12T09:45:35.214Z,10.80
2023-03-12T09:46:35.272Z,10.65
2023-03-12T09:47:35.354Z,11.12
2023-03-12T09:48:35.395Z,11.65
2023-03-12T09:49:35.451Z,11.18
2023-03-12T09:50:35.513Z,10.72
2023-03-12T09:51:35.551Z,10.87
2023-03-12T09:52:35.601Z,11.78
2023-03-12T09:53:35.669Z,12.83
2023-03-12T09:54:35.703Z,12.88
2023-03-12T09:55:35.753Z,12.36
2023-03-12T09:56:35.792Z,12.21
2023-03-12T09:57:35.914Z,12.47
2023-03-12T09:58:35.849Z,12.39
2023-03-12T09:59:35.902Z,12.50
2023-03-12T10:00:35.918Z,13.01
2023-03-12T10:01:35.961Z,12.53
2023-03-12T10:02:36.026Z,11.45
2023-03-12T10:03:36.135Z,11.08
2023-03-12T10:04:48.704Z,11.00
2023-03-12T10:05:37.036Z,10.58
2023-03-12T10:06:36.083Z,10.51
2023-03-12T10:07:36.177Z,10.41
2023-03-12T10:08:36.151Z,10.75
2023-03-12T10:09:36.244Z,11.25
2023-03-12T10:10:36.307Z,11.53
2023-03-12T10:11:36.344Z,11.62
2023-03-12T10:12:36.397Z,11.63
2023-03-12T10:13:36.440Z,11.34
2023-03-12T10:14:36.468Z,11.43
2023-03-12T10:15:36.496Z,11.62
2023-03-12T10:16:36.531Z,11.95
2023-03-12T10:17:36.613Z,11.88
2023-03-12T10:18:36.745Z,12.25
2023-03-12T10:19:36.606Z,12.30
2023-03-12T10:20:36.624Z,12.63
2023-03-12T10:21:37.619Z,12.88
2023-03-12T10:22:36.662Z,12.69
2023-03-12T10:23:36.693Z,12.66
2023-03-12T10:24:36.708Z,12.40
2023-03-12T10:25:36.755Z,11.51
2023-03-12T10:26:36.796Z,11.63
2023-03-12T10:27:36.850Z,11.22
2023-03-12T10:28:36.876Z,11.38
2023-03-12T10:29:36.926Z,11.65
2023-03-12T10:30:36.953Z,11.83
2023-03-12T10:31:36.993Z,11.83
2023-03-12T10:32:37.048Z,11.59
2023-03-12T10:33:37.077Z,10.92
2023-03-12T10:34:37.099Z,10.46
2023-03-12T10:35:37.168Z,10.64
2023-03-12T10:36:37.213Z,11.34
2023-03-12T10:37:37.322Z,11.71
2023-03-12T10:38:37.239Z,12.10
2023-03-12T10:39:37.274Z,12.63
2023-03-12T10:40:37.349Z,12.94
2023-03-12T10:41:37.395Z,13.36
2023-03-12T10:42:37.438Z,13.12
2023-03-12T10:43:37.476Z,11.65
2023-03-12T10:44:37.492Z,11.18
2023-03-12T10:45:37.504Z,11.15
2023-03-12T10:46:37.588Z,10.25
2023-03-12T10:47:37.661Z,10.18
2023-03-12T10:48:37.679Z,10.34
2023-03-12T10:49:37.719Z,11.12
2023-03-12T10:50:37.772Z,11.49
2023-03-12T10:51:37.808Z,11.74
2023-03-12T10:52:37.866Z,12.30
2023-03-12T10:53:37.853Z,12.55
2023-03-12T10:54:37.899Z,12.57
2023-03-12T10:55:37.949Z,12.58
2023-03-12T10:56:37.966Z,12.83
2023-03-12T10:57:38.033Z,13.27
2023-03-12T10:58:38.055Z,12.73
2023-03-12T10:59:38.127Z,12.39
2023-03-12T11:00:38.174Z,11.95
2023-03-12T11:01:38.244Z,12.12
2023-03-12T11:02:38.294Z,12.29
2023-03-12T11:03:38.330Z,12.15
2023-03-12T11:04:38.358Z,11.70
2023-03-12T11:05:38.445Z,11.62
2023-03-12T11:06:38.401Z,11.31
2023-03-12T11:07:38.486Z,11.01
2023-03-12T11:08:38.513Z,11.05
2023-03-12T11:09:38.613Z,10.71
2023-03-12T11:10:38.633Z,10.68
2023-03-12T11:11:38.695Z,9.97
2023-03-12T11:12:38.775Z,9.70
2023-03-12T11:13:38.793Z,9.88
2023-03-12T11:14:38.857Z,10.02
2023-03-12T11:15:38.969Z,9.81
2023-03-12T11:16:38.934Z,9.84
2023-03-12T11:17:39.000Z,9.63
2023-03-12T11:18:39.055Z,9.36
2023-03-12T11:19:39.124Z,9.66
2023-03-12T11:20:39.194Z,10.06
2023-03-12T11:21:39.296Z,10.43
2023-03-12T11:22:39.362Z,10.25
2023-03-12T11:23:39.422Z,9.58
2023-03-12T11:24:39.487Z,9.08
2023-03-12T11:25:39.573Z,9.47
2023-03-12T11:26:39.655Z,9.51
2023-03-12T11:27:39.739Z,9.47
2023-03-12T11:28:39.820Z,9.48
2023-03-12T11:29:40.212Z,9.73
2023-03-12T11:30:40.040Z,9.73
2023-03-12T11:31:40.169Z,10.10
2023-03-12T11:32:40.240Z,9.54
2023-03-12T11:33:40.311Z,9.16
2023-03-12T11:34:40.401Z,8.96
2023-03-12T11:35:40.553Z,9.19
2023-03-12T11:36:40.523Z,9.37
2023-03-12T11:37:40.652Z,9.42
2023-03-12T11:38:40.687Z,9.16
2023-03-12T11:39:40.830Z,9.37
2023-03-12T11:40:40.826Z,9.58
2023-03-12T11:41:40.914Z,9.69
2023-03-12T11:42:41.003Z,9.27
2023-03-12T11:43:43.937Z,9.16
2023-03-12T11:44:41.154Z,9.27
2023-03-12T11:45:41.282Z,9.21
2023-03-12T11:46:41.446Z,9.16
2023-03-12T11:47:41.481Z,8.95
2023-03-12T11:48:41.588Z,8.90
2023-03-12T11:49:41.685Z,9.03
2023-03-12T11:50:41.771Z,8.78
2023-03-12T11:51:41.893Z,8.21
2023-03-12T11:52:42.002Z,8.09
2023-03-12T11:53:42.121Z,8.20
2023-03-12T11:54:42.238Z,8.31
2023-03-12T11:55:42.339Z,8.24
2023-03-12T11:56:42.454Z,8.41
2023-03-12T11:57:42.564Z,8.45
2023-03-12T11:58:42.666Z,8.61
2023-03-12T11:59:42.781Z,8.81
2023-03-12T12:00:42.907Z,8.95
2023-03-12T12:01:43.060Z,9.09
2023-03-12T12:02:43.154Z,9.27
2023-03-12T12:03:43.261Z,9.39
2023-03-12T12:04:43.363Z,9.59
2023-03-12T12:05:43.516Z,9.99
2023-03-12T12:06:43.984Z,10.00
2023-03-12T12:07:43.707Z,10.07
2023-03-12T12:08:43.797Z,9.62
2023-03-12T12:09:43.907Z,9.49
2023-03-12T12:10:43.989Z,9.52
2023-03-12T12:11:44.163Z,9.34
2023-03-12T12:12:44.144Z,9.24
2023-03-12T12:13:44.258Z,8.93
2023-03-12T12:14:44.346Z,8.32
2023-03-12T12:15:44.460Z,8.39
2023-03-12T12:16:44.642Z,8.38
2023-03-12T12:17:44.670Z,8.28
2023-03-12T12:18:44.804Z,8.36
2023-03-12T12:19:44.936Z,8.34
2023-03-12T12:20:45.088Z,8.27
2023-03-12T12:21:45.272Z,8.20
2023-03-12T12:22:45.147Z,8.20
2023-03-12T12:23:45.267Z,8.20
2023-03-12T12:24:45.391Z,8.21
2023-03-12T12:25:45.502Z,8.13
2023-03-12T12:26:45.587Z,8.28
2023-03-12T12:27:45.705Z,8.31
2023-03-12T12:28:45.798Z,8.45
2023-03-12T12:29:45.981Z,8.32
2023-03-12T12:30:46.003Z,8.44
2023-03-12T12:31:46.286Z,8.46
2023-03-12T12:32:47.328Z,8.52
2023-03-12T12:33:46.312Z,8.54
2023-03-12T12:34:46.437Z,8.45
2023-03-12T12:35:46.632Z,8.18
2023-03-12T12:36:46.621Z,8.18
2023-03-12T12:37:46.740Z,8.08
2023-03-12T12:38:46.855Z,8.02
2023-03-12T12:39:47.203Z,8.11
2023-03-12T12:40:47.098Z,8.11
2023-03-12T12:41:48.666Z,7.85
2023-03-12T12:42:47.335Z,7.59
2023-03-12T12:43:47.472Z,7.70
2023-03-12T12:44:47.581Z,7.95
2023-03-12T12:45:47.736Z,8.03
2023-03-12T12:46:47.790Z,8.05
2023-03-12T12:47:47.913Z,8.11
2023-03-12T12:48:48.033Z,8.23
2023-03-12T12:49:48.170Z,7.96
2023-03-12T12:50:48.268Z,7.99
2023-03-12T12:51:48.405Z,8.05
2023-03-12T12:52:48.509Z,8.16
2023-03-12T12:53:48.666Z,8.24
2023-03-12T12:54:48.798Z,8.20
2023-03-12T12:55:48.925Z,8.23
2023-03-12T12:56:49.031Z,8.32
2023-03-12T12:57:49.161Z,8.21
2023-03-12T12:58:49.272Z,8.01
2023-03-12T12:59:49.390Z,8.02
2023-03-12T13:00:49.548Z,8.08
2023-03-12T13:01:49.748Z,8.09
2023-03-12T13:02:49.735Z,8.17
2023-03-12T13:03:49.901Z,8.14
2023-03-12T13:04:49.999Z,7.88
2023-03-12T13:05:50.111Z,7.88
2023-03-12T13:06:50.246Z,7.81
2023-03-12T13:07:50.351Z,7.88
2023-03-12T13:08:50.484Z,7.90
2023-03-12T13:09:50.656Z,7.96
2023-03-12T13:10:57.867Z,8.06
2023-03-12T13:11:51.845Z,8.09
2023-03-12T13:12:50.968Z,7.90
2023-03-12T13:13:51.090Z,7.87
2023-03-12T13:14:51.216Z,7.81
2023-03-12T13:15:51.384Z,7.62